createdAt,value
2019-05-03T00:00:22.305Z,56.00
2019-05-03T00:03:01.694Z,56.00
2019-05-03T00:05:45.240Z,55.60
2019-05-03T00:08:13.313Z,55.90
2019-05-03T00:10:42.507Z,55.30
2019-05-03T00:13:32.510Z,54.70
2019-05-03T00:16:13.492Z,55.50
2019-05-03T00:18:42.197Z,55.90
2019-05-03T00:21:11.686Z,54.90
2019-05-03T00:23:41.629Z,54.70
2019-05-03T00:26:09.545Z,55.10
2019-05-03T00:28:37.516Z,55.30
2019-05-03T00:31:05.412Z,55.40
2019-05-03T00:33:34.707Z,55.50
2019-05-03T00:36:32.805Z,55.60
2019-05-03T00:39:14.347Z,55.60
2019-05-03T00:41:42.600Z,55.80
2019-05-03T00:44:11.574Z,55.60
2019-05-03T00:46:39.449Z,56.00
2019-05-03T00:49:07.379Z,55.70
2019-05-03T00:51:35.274Z,56.10
2019-05-03T00:54:03.293Z,56.30
2019-05-03T00:56:32.132Z,56.00
2019-05-03T00:59:02.024Z,56.40
2019-05-03T01:01:31.940Z,56.90
2019-05-03T01:04:01.670Z,57.30
2019-05-03T01:06:31.694Z,57.70
2019-05-03T01:08:59.624Z,58.10
2019-05-03T01:11:27.481Z,58.80
2019-05-03T01:13:55.405Z,59.50
2019-05-03T01:16:24.658Z,59.90
2019-05-03T01:18:52.599Z,60.20
2019-05-03T01:21:22.640Z,60.20
2019-05-03T01:23:52.291Z,60.60
2019-05-03T01:26:22.463Z,59.90
2019-05-03T01:28:52.126Z,60.90
2019-05-03T01:31:20.160Z,60.60
2019-05-03T01:33:48.049Z,60.60
2019-05-03T01:36:15.905Z,61.20
2019-05-03T01:38:43.835Z,60.50
2019-05-03T01:41:12.307Z,61.20
2019-05-03T01:43:41.790Z,61.50
2019-05-03T01:46:11.873Z,60.70
2019-05-03T01:48:52.812Z,59.90
2019-05-03T01:51:38.652Z,60.00
2019-05-03T01:54:06.650Z,59.00
2019-05-03T01:56:34.618Z,57.80
2019-05-03T01:59:02.550Z,56.90
2019-05-03T02:01:37.371Z,55.50
2019-05-03T02:04:23.574Z,53.40
2019-05-03T02:06:51.949Z,52.80
2019-05-03T02:09:21.557Z,52.40
2019-05-03T02:11:49.661Z,52.70
2019-05-03T02:14:17.588Z,53.20
2019-05-03T02:16:45.474Z,53.20
2019-05-03T02:19:13.410Z,53.20
2019-05-03T02:21:41.698Z,52.80
2019-05-03T02:24:11.647Z,53.10
2019-05-03T02:26:39.474Z,50.60
2019-05-03T02:29:07.452Z,50.70
2019-05-03T02:31:35.390Z,48.30
2019-05-03T02:34:03.724Z,48.60
2019-05-03T02:36:33.769Z,48.90
2019-05-03T02:39:02.889Z,49.10
2019-05-03T02:41:32.478Z,49.00
2019-05-03T02:44:00.484Z,48.90
2019-05-03T02:47:06.340Z,48.70
2019-05-03T02:49:56.223Z,49.00
2019-05-03T02:52:37.528Z,49.80
2019-05-03T02:55:09.733Z,48.70
2019-05-03T02:57:37.644Z,49.40
2019-05-03T03:00:09.550Z,49.30
2019-05-03T03:02:38.588Z,49.60
2019-05-03T03:05:08.300Z,51.30
2019-05-03T03:07:37.685Z,49.90
2019-05-03T03:10:06.708Z,50.50
2019-05-03T03:12:35.827Z,50.60
2019-05-03T03:15:06.256Z,50.60
2019-05-03T03:17:36.450Z,50.60
2019-05-03T03:20:06.399Z,51.20
2019-05-03T03:22:40.984Z,52.00
2019-05-03T03:25:17.546Z,52.30
2019-05-03T03:27:49.119Z,54.30
2019-05-03T03:30:48.812Z,54.00
2019-05-03T03:33:17.716Z,54.90
2019-05-03T03:35:49.218Z,55.00
2019-05-03T03:38:17.441Z,55.40
2019-05-03T03:40:46.420Z,55.80
2019-05-03T03:43:15.709Z,56.90
2019-05-03T03:45:45.464Z,58.00
2019-05-03T03:48:18.341Z,59.10
2019-05-03T03:50:49.825Z,59.70
2019-05-03T03:53:19.582Z,59.80
2019-05-03T03:55:47.572Z,60.80
2019-05-03T03:58:22.552Z,60.40
2019-05-03T04:00:46.481Z,60.00
2019-05-03T04:03:15.858Z,60.00
2019-05-03T04:05:46.727Z,60.10
2019-05-03T04:08:16.114Z,59.90
2019-05-03T04:10:46.390Z,59.90
2019-05-03T04:13:16.026Z,59.80
2019-05-03T04:15:57.512Z,59.30
2019-05-03T04:18:51.991Z,59.50
2019-05-03T04:21:19.967Z,59.70
2019-05-03T04:23:48.876Z,60.40
2019-05-03T04:26:16.757Z,61.00
2019-05-03T04:28:45.435Z,60.80
2019-05-03T04:31:15.254Z,60.50
2019-05-03T04:33:45.177Z,59.90
2019-05-03T04:36:15.952Z,59.00
2019-05-03T04:38:45.314Z,58.30
2019-05-03T04:41:15.906Z,56.80
2019-05-03T04:43:45.849Z,56.10
2019-05-03T04:46:22.112Z,56.30
2019-05-03T04:48:50.032Z,55.10
2019-05-03T04:51:17.983Z,53.80
2019-05-03T04:53:51.515Z,53.30
2019-05-03T04:56:19.446Z,52.70
2019-05-03T04:58:47.747Z,52.30
2019-05-03T05:01:15.982Z,52.20
2019-05-03T05:03:45.683Z,51.80
2019-05-03T05:06:15.394Z,52.20
2019-05-03T05:08:45.928Z,51.80
2019-05-03T05:11:15.826Z,52.00
2019-05-03T05:13:45.584Z,52.70
2019-05-03T05:16:15.836Z,52.40
2019-05-03T05:18:48.316Z,51.90
2019-05-03T05:21:32.897Z,51.70
2019-05-03T05:24:02.402Z,51.80
2019-05-03T05:26:49.905Z,51.30
2019-05-03T05:29:20.337Z,51.30
2019-05-03T05:31:48.265Z,51.30
2019-05-03T05:34:16.162Z,51.40
2019-05-03T05:36:45.082Z,51.20
2019-05-03T05:39:18.693Z,51.70
2019-05-03T05:41:46.173Z,51.50
2019-05-03T05:44:14.561Z,50.60
2019-05-03T05:46:59.798Z,50.20
2019-05-03T05:50:07.111Z,51.10
2019-05-03T05:52:35.403Z,52.00
2019-05-03T05:55:41.682Z,52.60
2019-05-03T05:58:15.736Z,52.70
2019-05-03T06:00:49.793Z,52.40
2019-05-03T06:03:17.990Z,52.70
2019-05-03T06:05:46.367Z,52.40
2019-05-03T06:08:35.994Z,52.20
2019-05-03T06:11:32.471Z,52.00
2019-05-03T06:14:06.198Z,51.10
2019-05-03T06:16:39.866Z,51.70
2019-05-03T06:19:15.154Z,51.20
2019-05-03T06:22:05.865Z,50.50
2019-05-03T06:24:38.793Z,50.10
2019-05-03T06:27:18.545Z,50.90
2019-05-03T06:29:48.364Z,51.30
2019-05-03T06:32:29.765Z,51.00
2019-05-03T06:34:57.728Z,51.10
2019-05-03T06:37:28.613Z,50.90
2019-05-03T06:39:56.560Z,48.50
2019-05-03T06:42:25.528Z,45.20
2019-05-03T06:44:54.629Z,45.80
2019-05-03T06:47:22.744Z,46.70
2019-05-03T06:49:50.743Z,45.90
2019-05-03T06:52:19.893Z,45.90
2019-05-03T06:54:48.973Z,43.40
2019-05-03T06:57:19.718Z,42.20
2019-05-03T07:00:10.093Z,42.10
2019-05-03T07:02:45.020Z,43.20
2019-05-03T07:05:25.628Z,43.00
2019-05-03T07:08:19.364Z,42.80
2019-05-03T07:10:50.486Z,44.20
2019-05-03T07:13:18.430Z,43.90
2019-05-03T07:15:46.422Z,43.80
2019-05-03T07:18:15.709Z,44.30
2019-05-03T07:20:54.952Z,44.40
2019-05-03T07:23:24.358Z,44.80
2019-05-03T07:25:52.392Z,45.30
2019-05-03T07:28:20.495Z,44.60
2019-05-03T07:30:48.492Z,44.20
2019-05-03T07:33:22.675Z,44.20
2019-05-03T07:35:50.671Z,44.70
2019-05-03T07:38:18.876Z,43.70
2019-05-03T07:40:46.835Z,44.10
2019-05-03T07:43:14.990Z,45.00
2019-05-03T07:45:44.670Z,44.80
2019-05-03T07:48:14.891Z,45.90
2019-05-03T07:50:44.597Z,48.00
2019-05-03T07:53:12.464Z,49.60
2019-05-03T07:55:58.487Z,50.50
2019-05-03T07:58:26.627Z,51.80
2019-05-03T08:01:06.200Z,52.60
2019-05-03T08:03:27.205Z,52.70
2019-05-03T08:05:55.416Z,51.30
2019-05-03T08:08:25.119Z,50.60
2019-05-03T08:10:55.013Z,50.40
2019-05-03T08:13:25.106Z,50.30
2019-05-03T08:15:53.008Z,51.20
2019-05-03T08:18:21.285Z,50.40
2019-05-03T08:20:49.212Z,48.60
2019-05-03T08:23:26.756Z,47.20
2019-05-03T08:25:47.083Z,45.60
2019-05-03T08:28:15.057Z,44.50
2019-05-03T08:31:01.567Z,43.60
2019-05-03T08:33:47.197Z,41.70
2019-05-03T08:36:15.732Z,39.10
2019-05-03T08:38:45.231Z,40.30
2019-05-03T08:41:16.612Z,40.60
2019-05-03T08:43:44.788Z,39.20
2019-05-03T08:46:14.856Z,39.70
2019-05-03T08:48:42.913Z,38.30
2019-05-03T08:51:10.937Z,39.10
2019-05-03T08:53:38.966Z,39.70
2019-05-03T08:56:06.929Z,38.00
2019-05-03T08:58:34.980Z,38.60
2019-05-03T09:01:05.709Z,34.40
2019-05-03T09:03:36.407Z,35.00
2019-05-03T09:06:04.648Z,35.60
2019-05-03T09:08:35.143Z,36.80
2019-05-03T09:11:10.301Z,37.60
2019-05-03T09:13:53.165Z,36.40
2019-05-03T09:16:25.033Z,34.90
2019-05-03T09:18:54.759Z,35.50
2019-05-03T09:21:22.958Z,36.40
2019-05-03T09:23:50.927Z,35.60
2019-05-03T09:26:18.866Z,35.80
2019-05-03T09:28:46.862Z,36.60
2019-05-03T09:31:15.566Z,35.80
2019-05-03T09:33:45.154Z,35.20
2019-05-03T09:36:14.756Z,33.90
2019-05-03T09:38:43.157Z,34.00
2019-05-03T09:41:11.139Z,32.90
2019-05-03T09:43:39.090Z,33.40
2019-05-03T09:46:07.089Z,32.60
2019-05-03T09:48:35.043Z,32.80
2019-05-03T09:51:05.043Z,32.50
2019-05-03T09:53:39.090Z,32.70
2019-05-03T09:56:08.220Z,32.60
2019-05-03T09:58:38.133Z,31.80
2019-05-03T10:01:12.065Z,32.10
2019-05-03T10:03:40.120Z,32.20
2019-05-03T10:06:08.084Z,32.40
2019-05-03T10:08:36.051Z,32.10
2019-05-03T10:11:10.121Z,31.00
2019-05-03T10:13:41.448Z,31.10
2019-05-03T10:16:08.052Z,31.20
2019-05-03T10:18:36.125Z,32.60
2019-05-03T10:21:05.304Z,32.10
2019-05-03T10:23:39.861Z,31.00
2019-05-03T10:26:09.069Z,31.50
2019-05-03T10:28:37.153Z,32.60
2019-05-03T10:31:07.706Z,31.10
2019-05-03T10:33:44.996Z,31.70
2019-05-03T10:36:15.193Z,30.80
2019-05-03T10:38:42.935Z,28.90
2019-05-03T10:41:10.891Z,28.10
2019-05-03T10:43:38.881Z,27.40
2019-05-03T10:46:06.862Z,27.80
2019-05-03T10:48:35.589Z,28.00
2019-05-03T10:51:04.693Z,29.00
2019-05-03T10:53:39.079Z,29.60
2019-05-03T10:56:26.727Z,29.30
2019-05-03T10:59:01.434Z,28.70
2019-05-03T11:01:47.324Z,29.30
2019-05-03T11:04:15.259Z,28.40
2019-05-03T11:06:45.512Z,28.00
2019-05-03T11:09:15.333Z,28.80
2019-05-03T11:11:45.191Z,28.70
2019-05-03T11:14:14.758Z,27.90
2019-05-03T11:16:42.826Z,28.70
2019-05-03T11:19:10.761Z,28.70
2019-05-03T11:21:38.667Z,28.10
2019-05-03T11:24:06.708Z,27.70
2019-05-03T11:26:35.305Z,28.40
2019-05-03T11:29:05.177Z,26.60
2019-05-03T11:31:55.975Z,27.20
2019-05-03T11:34:27.185Z,28.60
2019-05-03T11:37:25.157Z,27.70
2019-05-03T11:39:53.234Z,26.60
2019-05-03T11:42:21.220Z,26.50
2019-05-03T11:44:49.333Z,26.10
2019-05-03T11:47:17.303Z,26.60
2019-05-03T11:49:45.597Z,25.20
2019-05-03T11:52:15.874Z,25.60
2019-05-03T11:54:45.273Z,24.40
2019-05-03T11:57:21.138Z,26.10
2019-05-03T11:59:49.179Z,25.60
2019-05-03T12:02:35.663Z,25.70
2019-05-03T12:05:05.906Z,25.40
2019-05-03T12:07:39.969Z,26.00
2019-05-03T12:10:15.028Z,25.60
2019-05-03T12:12:38.003Z,25.40
2019-05-03T12:15:06.055Z,25.50
2019-05-03T12:17:50.515Z,24.40
2019-05-03T12:20:09.004Z,25.00
2019-05-03T12:22:38.218Z,24.40
2019-05-03T12:25:10.487Z,24.70
2019-05-03T12:27:37.591Z,24.50
2019-05-03T12:30:06.178Z,23.40
2019-05-03T12:32:34.591Z,23.40
2019-05-03T12:35:02.853Z,23.90
2019-05-03T12:37:31.024Z,24.90
2019-05-03T12:39:58.979Z,23.70
2019-05-03T12:42:27.046Z,23.50
2019-05-03T12:44:55.525Z,22.90
2019-05-03T12:47:25.168Z,22.50
2019-05-03T12:49:55.740Z,22.20
2019-05-03T12:52:26.243Z,22.20
2019-05-03T12:54:55.080Z,22.40
2019-05-03T12:57:24.842Z,22.00
2019-05-03T12:59:59.371Z,21.20
2019-05-03T13:02:33.947Z,21.40
2019-05-03T13:05:02.291Z,22.20
2019-05-03T13:07:45.526Z,22.20
2019-05-03T13:10:21.604Z,21.80
2019-05-03T13:12:52.747Z,20.60
2019-05-03T13:15:16.611Z,20.90
2019-05-03T13:17:44.702Z,22.60
2019-05-03T13:20:14.351Z,22.10
2019-05-03T13:22:42.391Z,22.70
2019-05-03T13:25:10.776Z,22.70
2019-05-03T13:27:39.157Z,22.50
2019-05-03T13:30:10.089Z,22.70
2019-05-03T13:32:38.074Z,21.70
2019-05-03T13:35:06.359Z,21.30
2019-05-03T13:37:35.853Z,21.00
2019-05-03T13:40:05.376Z,20.50
2019-05-03T13:42:35.033Z,19.40
2019-05-03T13:45:04.845Z,19.50
2019-05-03T13:47:34.916Z,20.00
2019-05-03T13:50:03.979Z,21.20
2019-05-03T13:52:32.064Z,21.90
2019-05-03T13:55:00.019Z,22.00
2019-05-03T13:57:28.072Z,20.00
2019-05-03T13:59:56.247Z,17.80
2019-05-03T14:02:27.192Z,17.10
2019-05-03T14:04:55.715Z,17.70
2019-05-03T14:07:23.706Z,16.70
2019-05-03T14:09:51.629Z,16.20
2019-05-03T14:12:19.586Z,15.00
2019-05-03T14:14:55.889Z,16.30
2019-05-03T14:17:26.727Z,16.00
2019-05-03T14:20:10.409Z,14.30
2019-05-03T14:22:40.784Z,13.90
2019-05-03T14:25:08.852Z,14.70
2019-05-03T14:27:37.862Z,14.70
2019-05-03T14:30:06.018Z,15.00
2019-05-03T14:32:35.947Z,14.40
2019-05-03T14:35:04.502Z,14.90
2019-05-03T14:37:32.566Z,15.80
2019-05-03T14:40:00.614Z,16.20
2019-05-03T14:42:28.623Z,15.50
2019-05-03T14:44:56.585Z,16.00
2019-05-03T14:47:25.249Z,15.40
2019-05-03T14:49:54.603Z,15.30
2019-05-03T14:52:25.126Z,15.20
2019-05-03T14:54:55.821Z,14.10
2019-05-03T14:57:30.618Z,13.50
2019-05-03T15:00:18.207Z,13.10
2019-05-03T15:02:51.330Z,12.20
2019-05-03T15:05:21.403Z,13.50
2019-05-03T15:07:49.427Z,13.60
2019-05-03T15:10:17.735Z,12.80
2019-05-03T15:12:45.712Z,13.00
2019-05-03T15:15:14.756Z,13.90
2019-05-03T15:17:43.007Z,14.90
2019-05-03T15:20:10.977Z,16.30
2019-05-03T15:22:38.967Z,15.80
2019-05-03T15:25:07.266Z,17.80
2019-05-03T15:27:35.479Z,17.40
2019-05-03T15:30:04.900Z,16.50
2019-05-03T15:32:35.232Z,15.90
2019-05-03T15:35:04.807Z,15.10
2019-05-03T15:37:32.930Z,15.20
2019-05-03T15:40:00.903Z,14.60
2019-05-03T15:42:29.576Z,14.10
2019-05-03T15:45:11.660Z,13.90
2019-05-03T15:47:45.283Z,14.50
2019-05-03T15:50:15.434Z,14.70
2019-05-03T15:52:44.472Z,14.90
2019-05-03T15:55:12.760Z,15.70
2019-05-03T15:57:40.780Z,16.80
2019-05-03T16:00:10.936Z,17.50
2019-05-03T16:02:40.983Z,18.10
2019-05-03T16:05:08.965Z,18.60
2019-05-03T16:07:36.947Z,19.40
2019-05-03T16:10:05.161Z,19.20
2019-05-03T16:12:34.455Z,19.40
2019-05-03T16:15:04.536Z,20.10
2019-05-03T16:17:32.634Z,20.20
2019-05-03T16:20:00.845Z,20.70
2019-05-03T16:22:28.951Z,20.70
2019-05-03T16:24:57.129Z,21.30
2019-05-03T16:27:47.867Z,21.90
2019-05-03T16:30:41.592Z,20.30
2019-05-03T16:33:22.491Z,20.90
2019-05-03T16:35:39.502Z,21.50
2019-05-03T16:38:07.451Z,21.20
2019-05-03T16:40:35.553Z,21.30
2019-05-03T16:43:04.691Z,21.60
2019-05-03T16:45:34.912Z,21.70
2019-05-03T16:48:04.486Z,21.00
2019-05-03T16:50:34.533Z,21.40
2019-05-03T16:53:02.853Z,21.60
2019-05-03T16:55:30.986Z,21.00
2019-05-03T16:57:59.041Z,21.20
2019-05-03T17:00:26.970Z,21.40
2019-05-03T17:02:55.203Z,21.90
2019-05-03T17:05:42.850Z,22.20
2019-05-03T17:08:29.268Z,22.20
2019-05-03T17:10:59.048Z,21.90
2019-05-03T17:13:29.313Z,21.80
2019-05-03T17:15:57.416Z,22.00
2019-05-03T17:18:25.607Z,22.40
2019-05-03T17:20:54.771Z,22.40
2019-05-03T17:23:24.601Z,23.00
2019-05-03T17:25:53.380Z,22.40
2019-05-03T17:28:21.528Z,23.00
2019-05-03T17:30:49.717Z,22.10
2019-05-03T17:33:17.819Z,22.90
2019-05-03T17:35:48.940Z,23.30
2019-05-03T17:38:17.998Z,23.10
2019-05-03T17:40:57.813Z,23.20
2019-05-03T17:43:34.515Z,23.20
2019-05-03T17:46:04.365Z,23.40
2019-05-03T17:48:36.756Z,23.80
2019-05-03T17:51:10.363Z,23.90
2019-05-03T17:53:47.056Z,24.00
2019-05-03T17:56:35.150Z,23.90
2019-05-03T17:59:25.810Z,24.80
2019-05-03T18:02:11.795Z,24.20
2019-05-03T18:05:00.539Z,24.40
2019-05-03T18:07:39.976Z,24.80
2019-05-03T18:10:09.036Z,24.60
2019-05-03T18:12:37.429Z,24.80
2019-05-03T18:15:05.808Z,25.30
2019-05-03T18:17:35.252Z,25.80
2019-05-03T18:20:04.548Z,25.70
2019-05-03T18:22:32.598Z,25.40
2019-05-03T18:25:00.779Z,25.70
2019-05-03T18:27:29.561Z,26.20
2019-05-03T18:29:58.109Z,26.50
2019-05-03T18:32:26.207Z,26.40
2019-05-03T18:34:54.710Z,26.00
2019-05-03T18:37:24.484Z,26.80
2019-05-03T18:39:54.646Z,26.90
2019-05-03T18:42:32.045Z,26.50
2019-05-03T18:45:04.678Z,26.30
2019-05-03T18:47:34.399Z,26.40
2019-05-03T18:50:04.352Z,26.90
2019-05-03T18:52:34.357Z,26.90
2019-05-03T18:55:04.422Z,27.30
2019-05-03T18:57:32.668Z,27.60
2019-05-03T19:00:00.702Z,27.50
2019-05-03T19:02:28.776Z,27.70
2019-05-03T19:04:56.995Z,28.00
2019-05-03T19:07:45.295Z,28.00
2019-05-03T19:10:38.519Z,27.90
2019-05-03T19:13:16.800Z,29.40
2019-05-03T19:15:44.948Z,29.00
2019-05-03T19:18:35.270Z,29.50
2019-05-03T19:21:07.558Z,30.20
2019-05-03T19:23:35.667Z,30.80
2019-05-03T19:26:05.576Z,30.20
2019-05-03T19:28:35.413Z,30.50
2019-05-03T19:31:05.481Z,29.10
2019-05-03T19:33:34.770Z,29.30
2019-05-03T19:36:04.513Z,28.90
2019-05-03T19:38:34.974Z,29.30
2019-05-03T19:41:03.031Z,29.80
2019-05-03T19:43:31.329Z,30.70
2019-05-03T19:45:59.628Z,30.60
2019-05-03T19:48:27.798Z,31.40
2019-05-03T19:50:55.973Z,32.20
2019-05-03T19:53:49.632Z,30.90
2019-05-03T19:56:19.276Z,30.90
2019-05-03T19:58:47.427Z,30.90
2019-05-03T20:01:41.296Z,31.30
2019-05-03T20:04:35.512Z,31.50
2019-05-03T20:07:20.688Z,31.50
2019-05-03T20:09:49.060Z,31.60
2019-05-03T20:12:17.375Z,31.80
2019-05-03T20:14:45.610Z,32.10
2019-05-03T20:17:14.832Z,32.10
2019-05-03T20:19:45.059Z,31.80
2019-05-03T20:22:15.160Z,32.10
2019-05-03T20:24:44.773Z,31.80
2019-05-03T20:27:12.881Z,31.90
2019-05-03T20:29:43.533Z,32.10
2019-05-03T20:32:11.359Z,32.20
2019-05-03T20:34:39.482Z,32.10
2019-05-03T20:37:07.657Z,32.80
2019-05-03T20:39:35.928Z,32.70
2019-05-03T20:42:04.530Z,32.60
2019-05-03T20:44:39.769Z,32.50
2019-05-03T20:47:40.006Z,32.90
2019-05-03T20:50:15.636Z,32.90
2019-05-03T20:52:45.379Z,33.20
2019-05-03T20:55:15.551Z,33.50
2019-05-03T20:57:44.407Z,33.80
2019-05-03T21:00:15.395Z,33.70
2019-05-03T21:02:53.432Z,34.10
2019-05-03T21:05:27.166Z,34.20
2019-05-03T21:07:46.509Z,34.70
2019-05-03T21:10:15.658Z,34.80
2019-05-03T21:12:43.981Z,35.00
2019-05-03T21:15:27.474Z,35.10
2019-05-03T21:18:15.212Z,35.10
2019-05-03T21:20:50.922Z,35.30
2019-05-03T21:23:20.499Z,35.80
2019-05-03T21:26:13.205Z,36.10
2019-05-03T21:28:37.550Z,36.50
2019-05-03T21:31:06.099Z,36.70
2019-05-03T21:33:35.488Z,37.70
2019-05-03T21:36:04.674Z,37.00
2019-05-03T21:38:32.804Z,37.10
2019-05-03T21:41:01.144Z,37.00
2019-05-03T21:43:29.226Z,37.30
2019-05-03T21:46:19.856Z,37.70
2019-05-03T21:48:55.397Z,38.10
2019-05-03T21:51:24.523Z,38.60
2019-05-03T21:53:52.768Z,38.80
2019-05-03T21:56:20.847Z,39.00
2019-05-03T21:58:48.855Z,39.40
2019-05-03T22:01:17.393Z,40.00
2019-05-03T22:03:45.598Z,40.20
2019-05-03T22:06:15.433Z,41.20
2019-05-03T22:08:45.533Z,41.20
2019-05-03T22:11:14.839Z,41.90
2019-05-03T22:13:45.465Z,43.10
2019-05-03T22:16:20.580Z,41.90
2019-05-03T22:18:48.940Z,42.70
2019-05-03T22:21:26.885Z,42.60
2019-05-03T22:24:17.538Z,41.80
2019-05-03T22:26:54.963Z,42.10
2019-05-03T22:29:25.210Z,42.10
2019-05-03T22:31:54.697Z,41.90
2019-05-03T22:34:23.043Z,41.90
2019-05-03T22:36:51.087Z,42.90
2019-05-03T22:39:19.034Z,42.10
2019-05-03T22:41:47.122Z,42.30
2019-05-03T22:44:17.100Z,42.50
2019-05-03T22:46:45.118Z,42.60
2019-05-03T22:49:15.444Z,42.50
2019-05-03T22:51:44.996Z,42.30
2019-05-03T22:54:15.189Z,42.90
2019-05-03T22:56:44.596Z,43.50
2019-05-03T22:59:14.747Z,42.90
2019-05-03T23:01:42.959Z,43.20
2019-05-03T23:04:11.028Z,43.50
2019-05-03T23:06:39.025Z,43.80
2019-05-03T23:09:07.119Z,43.50
2019-05-03T23:11:35.412Z,43.50
2019-05-03T23:14:05.029Z,47.20
2019-05-03T23:16:35.652Z,46.00
2019-05-03T23:19:05.537Z,46.10
2019-05-03T23:21:56.469Z,46.30
2019-05-03T23:24:24.787Z,46.20
2019-05-03T23:26:53.171Z,45.90
2019-05-03T23:29:23.022Z,45.80
2019-05-03T23:31:51.050Z,45.90
2019-05-03T23:34:18.978Z,45.70
2019-05-03T23:36:46.964Z,45.00
2019-05-03T23:39:15.006Z,45.20
2019-05-03T23:41:42.982Z,46.60
2019-05-03T23:44:10.979Z,47.40
2019-05-03T23:46:45.471Z,47.20
2019-05-03T23:49:14.507Z,46.10
2019-05-03T23:51:49.443Z,45.80
2019-05-03T23:54:20.301Z,45.50
2019-05-03T23:56:49.692Z,45.20
2019-05-03T23:59:17.694Z,45.40
